createdAt,value
2022-10-13T00:01:49.359Z,2.20
2022-10-13T00:04:15.920Z,2.80
2022-10-13T00:06:42.503Z,2.15
2022-10-13T00:09:09.070Z,2.05
2022-10-13T00:11:35.666Z,2.10
2022-10-13T00:14:04.193Z,2.37
2022-10-13T00:16:31.953Z,2.03
2022-10-13T00:18:58.855Z,2.50
2022-10-13T00:21:27.653Z,2.45
2022-10-13T00:23:54.575Z,2.17
2022-10-13T00:26:22.971Z,2.77
2022-10-13T00:28:52.909Z,2.55
2022-10-13T00:31:22.295Z,2.40
2022-10-13T00:33:52.984Z,2.60
2022-10-13T00:36:21.320Z,2.58
2022-10-13T00:38:47.980Z,2.50
2022-10-13T00:41:14.963Z,2.40
2022-10-13T00:43:53.041Z,2.42
2022-10-13T00:46:20.613Z,2.63
2022-10-13T00:48:47.614Z,1.95
2022-10-13T00:51:16.686Z,2.50
2022-10-13T00:53:44.145Z,2.38
2022-10-13T00:56:11.982Z,2.20
2022-10-13T00:58:39.244Z,2.30
2022-10-13T01:01:07.435Z,2.60
2022-10-13T01:03:34.306Z,2.20
2022-10-13T01:06:02.826Z,2.80
2022-10-13T01:08:30.080Z,2.25
2022-10-13T01:11:19.448Z,2.60
2022-10-13T01:14:14.902Z,2.10
2022-10-13T01:17:11.517Z,2.07
2022-10-13T01:19:50.109Z,2.50
2022-10-13T01:22:34.685Z,2.15
2022-10-13T01:25:17.123Z,2.47
2022-10-13T01:28:02.948Z,2.05
2022-10-13T01:30:32.179Z,2.23
2022-10-13T01:33:25.868Z,1.90
2022-10-13T01:36:06.970Z,2.60
2022-10-13T01:38:42.962Z,2.20
2022-10-13T01:41:20.829Z,2.30
2022-10-13T01:43:58.117Z,2.50
2022-10-13T01:46:30.944Z,2.42
2022-10-13T01:49:00.038Z,2.50
2022-10-13T01:51:28.265Z,2.30
2022-10-13T01:53:55.037Z,2.20
2022-10-13T01:56:21.624Z,2.33
2022-10-13T01:58:50.401Z,2.08
2022-10-13T02:01:38.606Z,2.55
2022-10-13T02:04:26.278Z,2.65
2022-10-13T02:07:01.453Z,2.63
2022-10-13T02:09:43.953Z,2.60
2022-10-13T02:12:42.600Z,2.53
2022-10-13T02:15:13.147Z,2.47
2022-10-13T02:17:40.456Z,3.65
2022-10-13T02:20:07.817Z,2.22
2022-10-13T02:22:38.982Z,2.63
2022-10-13T02:25:06.138Z,2.83
2022-10-13T02:27:32.870Z,2.60
2022-10-13T02:29:59.511Z,3.33
2022-10-13T02:32:26.069Z,3.15
2022-10-13T02:34:52.669Z,2.93
2022-10-13T02:37:19.535Z,2.78
2022-10-13T02:39:46.113Z,2.63
2022-10-13T02:42:12.700Z,3.03
2022-10-13T02:44:40.148Z,2.92
2022-10-13T02:47:06.725Z,2.53
2022-10-13T02:49:33.287Z,3.00
2022-10-13T02:51:59.857Z,2.80
2022-10-13T02:54:26.397Z,2.85
2022-10-13T02:56:53.033Z,2.88
2022-10-13T02:59:19.636Z,2.80
2022-10-13T03:01:46.475Z,3.00
2022-10-13T03:04:13.075Z,2.95
2022-10-13T03:06:39.654Z,2.60
2022-10-13T03:09:06.322Z,3.05
2022-10-13T03:11:32.893Z,2.70
2022-10-13T03:13:59.477Z,3.05
2022-10-13T03:16:26.157Z,3.00
2022-10-13T03:18:52.699Z,3.05
2022-10-13T03:21:19.273Z,3.22
2022-10-13T03:23:45.885Z,2.90
2022-10-13T03:26:12.695Z,3.00
2022-10-13T03:28:39.354Z,2.83
2022-10-13T03:31:08.252Z,2.78
2022-10-13T03:33:34.922Z,2.63
2022-10-13T03:36:04.093Z,3.33
2022-10-13T03:38:31.713Z,3.13
2022-10-13T03:40:58.281Z,2.70
2022-10-13T03:43:25.124Z,3.20
2022-10-13T03:45:58.735Z,3.30
2022-10-13T03:48:25.746Z,3.37
2022-10-13T03:50:52.632Z,3.05
2022-10-13T03:53:19.297Z,2.90
2022-10-13T03:55:50.789Z,3.28
2022-10-13T03:58:17.616Z,3.13
2022-10-13T04:00:45.203Z,3.20
2022-10-13T04:03:12.120Z,3.35
2022-10-13T04:05:38.793Z,2.90
2022-10-13T04:08:05.860Z,3.55
2022-10-13T04:10:32.607Z,3.13
2022-10-13T04:12:59.861Z,3.00
2022-10-13T04:15:26.545Z,3.08
2022-10-13T04:17:53.144Z,3.08
2022-10-13T04:20:19.704Z,3.15
2022-10-13T04:22:46.296Z,3.40
2022-10-13T04:25:12.905Z,3.40
2022-10-13T04:27:39.590Z,3.03
2022-10-13T04:30:07.060Z,3.03
2022-10-13T04:32:33.702Z,3.67
2022-10-13T04:35:00.844Z,3.60
2022-10-13T04:37:27.401Z,3.00
2022-10-13T04:39:53.979Z,3.20
2022-10-13T04:42:20.833Z,2.78
2022-10-13T04:44:47.683Z,3.15
2022-10-13T04:47:14.261Z,2.70
2022-10-13T04:49:40.849Z,2.70
2022-10-13T04:52:07.683Z,2.97
2022-10-13T04:54:34.250Z,2.65
2022-10-13T04:57:00.802Z,3.03
2022-10-13T04:59:27.447Z,2.80
2022-10-13T05:01:54.019Z,2.93
2022-10-13T05:04:20.591Z,2.83
2022-10-13T05:07:15.893Z,3.05
2022-10-13T05:09:33.768Z,3.05
2022-10-13T05:12:00.321Z,2.92
2022-10-13T05:14:26.914Z,2.77
2022-10-13T05:16:53.593Z,3.35
2022-10-13T05:19:20.477Z,3.22
2022-10-13T05:21:47.050Z,2.85
2022-10-13T05:24:15.715Z,3.22
2022-10-13T05:26:42.299Z,3.17
2022-10-13T05:29:09.273Z,2.90
2022-10-13T05:31:36.376Z,2.92
2022-10-13T05:34:03.138Z,2.45
2022-10-13T05:36:32.001Z,2.38
2022-10-13T05:39:00.601Z,2.63
2022-10-13T05:41:27.717Z,2.83
2022-10-13T05:43:58.976Z,2.92
2022-10-13T05:46:26.840Z,2.30
2022-10-13T05:48:53.864Z,2.55
2022-10-13T05:51:35.781Z,2.70
2022-10-13T05:54:06.384Z,2.67
2022-10-13T05:56:40.244Z,2.70
2022-10-13T05:59:08.338Z,2.22
2022-10-13T06:01:39.050Z,2.90
2022-10-13T06:04:09.851Z,2.80
2022-10-13T06:06:36.483Z,2.90
2022-10-13T06:09:03.324Z,2.60
2022-10-13T06:11:29.940Z,2.80
2022-10-13T06:13:56.506Z,3.20
2022-10-13T06:16:23.099Z,2.70
2022-10-13T06:18:49.673Z,2.70
2022-10-13T06:21:17.333Z,2.90
2022-10-13T06:23:43.913Z,3.03
2022-10-13T06:26:10.503Z,2.85
2022-10-13T06:28:37.130Z,2.70
2022-10-13T06:31:05.649Z,2.80
2022-10-13T06:33:32.625Z,3.03
2022-10-13T06:36:06.131Z,2.80
2022-10-13T06:38:33.368Z,2.80
2022-10-13T06:41:04.094Z,3.23
2022-10-13T06:43:38.630Z,3.30
2022-10-13T06:46:07.035Z,2.72
2022-10-13T06:48:33.621Z,2.80
2022-10-13T06:51:05.295Z,3.17
2022-10-13T06:53:32.042Z,2.90
2022-10-13T06:55:59.813Z,3.10
2022-10-13T06:58:26.824Z,3.83
2022-10-13T07:00:53.911Z,2.90
2022-10-13T07:03:20.878Z,3.05
2022-10-13T07:05:47.493Z,3.00
2022-10-13T07:08:14.127Z,3.15
2022-10-13T07:10:40.907Z,2.90
2022-10-13T07:13:07.894Z,3.13
2022-10-13T07:15:37.806Z,3.40
2022-10-13T07:18:04.395Z,3.20
2022-10-13T07:20:30.939Z,2.97
2022-10-13T07:22:57.553Z,3.83
2022-10-13T07:25:24.117Z,2.72
2022-10-13T07:27:50.694Z,3.63
2022-10-13T07:30:17.289Z,3.40
2022-10-13T07:32:44.711Z,3.40
2022-10-13T07:35:11.856Z,3.40
2022-10-13T07:37:38.634Z,3.42
2022-10-13T07:40:06.351Z,3.47
2022-10-13T07:42:33.085Z,3.27
2022-10-13T07:44:59.776Z,3.35
2022-10-13T07:47:26.368Z,3.20
2022-10-13T07:49:54.677Z,3.40
2022-10-13T07:52:22.014Z,3.10
2022-10-13T07:54:48.842Z,3.20
2022-10-13T07:57:15.430Z,3.65
2022-10-13T07:59:42.002Z,3.13
2022-10-13T08:02:09.829Z,3.00
2022-10-13T08:04:36.406Z,3.25
2022-10-13T08:07:04.296Z,3.30
2022-10-13T08:09:30.921Z,3.35
2022-10-13T08:12:00.617Z,2.88
2022-10-13T08:14:29.132Z,3.50
2022-10-13T08:16:56.205Z,3.15
2022-10-13T08:19:23.328Z,2.70
2022-10-13T08:21:58.327Z,3.97
2022-10-13T08:24:25.734Z,3.28
2022-10-13T08:26:52.298Z,4.03
2022-10-13T08:29:23.542Z,3.60
2022-10-13T08:31:52.850Z,4.73
2022-10-13T08:34:20.088Z,3.78
2022-10-13T08:36:47.324Z,3.90
2022-10-13T08:39:14.139Z,3.88
2022-10-13T08:41:46.422Z,3.63
2022-10-13T08:47:16.109Z,3.88
2022-10-13T08:49:43.750Z,4.00
2022-10-13T08:52:26.275Z,4.18
2022-10-13T08:54:54.640Z,3.78
2022-10-13T08:57:21.458Z,3.87
2022-10-13T08:59:49.038Z,4.03
2022-10-13T09:02:29.973Z,3.95
2022-10-13T09:04:58.512Z,4.05
2022-10-13T09:07:28.193Z,4.00
2022-10-13T09:09:55.513Z,4.17
2022-10-13T09:12:24.940Z,3.38
2022-10-13T09:15:01.514Z,4.38
2022-10-13T09:17:29.545Z,4.00
2022-10-13T09:20:08.012Z,3.90
2022-10-13T09:22:38.833Z,3.90
2022-10-13T09:25:08.847Z,4.03
2022-10-13T09:28:02.700Z,4.40
2022-10-13T09:30:42.191Z,4.35
2022-10-13T09:33:09.068Z,4.72
2022-10-13T09:35:45.894Z,4.30
2022-10-13T09:38:20.984Z,3.95
2022-10-13T09:41:14.976Z,3.70
2022-10-13T09:43:47.636Z,3.75
2022-10-13T09:46:32.210Z,3.92
2022-10-13T09:49:24.929Z,4.13
2022-10-13T09:51:51.586Z,3.83
2022-10-13T09:54:51.472Z,3.90
2022-10-13T09:57:24.686Z,4.13
2022-10-13T09:59:53.588Z,3.95
2022-10-13T10:02:32.697Z,4.13
2022-10-13T10:05:06.375Z,3.70
2022-10-13T10:07:33.263Z,4.15
2022-10-13T10:10:47.477Z,4.50
2022-10-13T10:13:15.076Z,3.50
2022-10-13T10:15:50.181Z,3.93
2022-10-13T10:18:28.197Z,3.40
2022-10-13T10:21:00.688Z,3.40
2022-10-13T10:23:49.476Z,3.60
2022-10-13T10:26:42.599Z,3.80
2022-10-13T10:29:22.610Z,3.80
2022-10-13T10:32:25.079Z,3.53
2022-10-13T10:35:04.579Z,3.67
2022-10-13T10:38:04.222Z,3.67
2022-10-13T10:40:42.819Z,3.55
2022-10-13T10:43:43.181Z,3.60
2022-10-13T10:46:21.460Z,3.47
2022-10-13T10:48:50.603Z,3.42
2022-10-13T10:51:17.946Z,3.40
2022-10-13T10:53:59.597Z,3.40
2022-10-13T10:56:38.633Z,3.97
2022-10-13T10:59:18.066Z,3.72
2022-10-13T11:02:08.875Z,3.70
2022-10-13T11:04:41.307Z,4.10
2022-10-13T11:07:13.319Z,4.28
2022-10-13T11:09:42.665Z,4.10
2022-10-13T11:12:45.681Z,3.65
2022-10-13T11:15:43.690Z,3.72
2022-10-13T11:18:47.872Z,3.88
2022-10-13T11:21:14.589Z,3.70
2022-10-13T11:23:47.071Z,4.30
2022-10-13T11:26:41.385Z,3.80
2022-10-13T11:29:19.902Z,3.78
2022-10-13T11:31:52.770Z,4.25
2022-10-13T11:34:29.154Z,3.95
2022-10-13T11:36:57.494Z,4.47
2022-10-13T11:39:27.880Z,3.70
2022-10-13T11:42:22.770Z,3.47
2022-10-13T11:44:58.437Z,3.53
2022-10-13T11:47:34.083Z,4.18
2022-10-13T11:50:06.320Z,3.90
2022-10-13T11:52:57.385Z,3.88
2022-10-13T11:55:37.213Z,3.90
2022-10-13T11:58:22.250Z,3.85
2022-10-13T12:00:54.799Z,4.05
2022-10-13T12:03:43.407Z,4.30
2022-10-13T12:06:35.653Z,4.07
2022-10-13T12:09:05.217Z,3.90
2022-10-13T12:11:38.410Z,3.80
2022-10-13T12:14:07.669Z,4.35
2022-10-13T12:16:34.367Z,4.10
2022-10-13T12:19:19.960Z,4.20
2022-10-13T12:21:58.617Z,4.28
2022-10-13T12:24:27.226Z,4.28
2022-10-13T12:26:54.176Z,4.15
2022-10-13T12:29:25.266Z,5.00
2022-10-13T12:31:52.059Z,3.97
2022-10-13T12:34:29.133Z,4.20
2022-10-13T12:37:04.502Z,4.85
2022-10-13T12:39:34.431Z,4.47
2022-10-13T12:42:02.458Z,4.20
2022-10-13T12:44:31.017Z,4.50
2022-10-13T12:47:03.677Z,4.63
2022-10-13T12:49:35.242Z,4.40
2022-10-13T12:52:23.814Z,4.53
2022-10-13T12:54:52.764Z,4.70
2022-10-13T12:57:21.539Z,4.80
2022-10-13T12:59:48.353Z,4.90
2022-10-13T13:02:24.939Z,4.47
2022-10-13T13:04:51.763Z,4.68
2022-10-13T13:07:31.667Z,5.00
2022-10-13T13:10:19.137Z,4.35
2022-10-13T13:12:48.387Z,4.85
2022-10-13T13:15:36.635Z,5.05
2022-10-13T13:18:39.425Z,4.88
2022-10-13T13:21:07.742Z,4.70
2022-10-13T13:23:35.587Z,4.45
2022-10-13T13:26:16.490Z,4.80
2022-10-13T13:28:49.024Z,4.78
2022-10-13T13:31:17.245Z,4.85
2022-10-13T13:33:44.125Z,4.50
2022-10-13T13:36:30.938Z,4.57
2022-10-13T13:38:57.532Z,4.45
2022-10-13T13:41:27.724Z,4.72
2022-10-13T13:43:54.311Z,4.45
2022-10-13T13:46:25.505Z,4.30
2022-10-13T13:48:52.091Z,3.85
2022-10-13T13:51:19.037Z,4.13
2022-10-13T13:53:46.011Z,4.50
2022-10-13T13:56:19.925Z,3.92
2022-10-13T13:58:46.933Z,4.20
2022-10-13T14:01:14.437Z,4.28
2022-10-13T14:03:41.014Z,4.53
2022-10-13T14:06:07.738Z,4.28
2022-10-13T14:08:35.733Z,4.15
2022-10-13T14:11:06.241Z,4.20
2022-10-13T14:13:33.831Z,4.40
2022-10-13T14:16:01.649Z,4.28
2022-10-13T14:18:28.342Z,5.25
2022-10-13T14:20:54.914Z,4.18
2022-10-13T14:23:21.540Z,4.30
2022-10-13T14:25:48.154Z,4.20
2022-10-13T14:28:18.284Z,4.10
2022-10-13T14:30:45.188Z,4.22
2022-10-13T14:33:11.754Z,4.80
2022-10-13T14:35:38.337Z,4.00
2022-10-13T14:38:05.130Z,4.05
2022-10-13T14:40:31.731Z,4.30
2022-10-13T14:42:58.309Z,4.50
2022-10-13T14:45:24.949Z,4.47
2022-10-13T14:47:53.083Z,4.37
2022-10-13T14:50:20.384Z,4.78
2022-10-13T14:52:46.957Z,4.72
2022-10-13T14:55:13.547Z,4.55
2022-10-13T14:57:40.363Z,4.35
2022-10-13T15:00:07.737Z,3.97
2022-10-13T15:02:34.354Z,4.45
2022-10-13T15:05:01.123Z,4.38
2022-10-13T15:07:27.709Z,4.18
2022-10-13T15:10:04.864Z,4.53
2022-10-13T15:12:32.289Z,4.53
2022-10-13T15:14:58.871Z,4.30
2022-10-13T15:17:25.657Z,3.85
2022-10-13T15:19:52.245Z,4.28
2022-10-13T15:22:19.155Z,4.13
2022-10-13T15:24:46.018Z,4.60
2022-10-13T15:27:12.582Z,4.20
2022-10-13T15:29:39.199Z,3.97
2022-10-13T15:32:10.557Z,3.80
2022-10-13T15:34:40.244Z,4.43
2022-10-13T15:37:07.308Z,3.93
2022-10-13T15:39:34.110Z,3.90
2022-10-13T15:42:00.754Z,4.10
2022-10-13T15:44:27.812Z,3.90
2022-10-13T15:47:07.424Z,3.90
2022-10-13T15:49:39.318Z,4.30
2022-10-13T15:52:06.001Z,4.40
2022-10-13T15:54:32.667Z,4.18
2022-10-13T15:56:59.901Z,4.32
2022-10-13T15:59:26.520Z,4.57
2022-10-13T16:01:53.074Z,4.40
2022-10-13T16:04:19.885Z,4.40
2022-10-13T16:06:47.110Z,4.60
2022-10-13T16:09:13.721Z,4.50
2022-10-13T16:11:40.794Z,4.95
2022-10-13T16:14:07.504Z,4.83
2022-10-13T16:16:34.089Z,4.35
2022-10-13T16:19:00.672Z,4.95
2022-10-13T16:21:27.522Z,4.90
2022-10-13T16:23:54.345Z,4.72
2022-10-13T16:26:22.286Z,4.37
2022-10-13T16:28:49.058Z,4.63
2022-10-13T16:31:16.963Z,4.80
2022-10-13T16:33:45.564Z,4.85
2022-10-13T16:36:17.748Z,4.82
2022-10-13T16:38:46.670Z,4.13
2022-10-13T16:41:15.411Z,4.90
2022-10-13T16:43:42.513Z,4.53
2022-10-13T16:46:13.362Z,4.45
2022-10-13T16:48:40.876Z,4.70
2022-10-13T16:51:11.419Z,4.97
2022-10-13T16:53:38.755Z,4.55
2022-10-13T16:56:06.659Z,4.47
2022-10-13T16:58:33.623Z,4.60
2022-10-13T17:01:11.091Z,4.65
2022-10-13T17:03:39.057Z,5.43
2022-10-13T17:06:06.736Z,4.35
2022-10-13T17:08:33.396Z,4.25
2022-10-13T17:11:00.582Z,4.47
2022-10-13T17:13:27.167Z,4.72
2022-10-13T17:15:54.872Z,4.60
2022-10-13T17:18:21.983Z,4.75
2022-10-13T17:20:51.705Z,4.10
2022-10-13T17:23:18.271Z,5.05
2022-10-13T17:25:44.953Z,4.60
2022-10-13T17:28:11.522Z,4.87
2022-10-13T17:30:38.137Z,4.00
2022-10-13T17:33:04.778Z,4.38
2022-10-13T17:35:31.688Z,4.63
2022-10-13T17:37:58.359Z,4.43
2022-10-13T17:40:25.227Z,4.77
2022-10-13T17:42:51.878Z,4.80
2022-10-13T17:45:18.459Z,4.07
2022-10-13T17:47:51.719Z,4.65
2022-10-13T17:50:18.916Z,4.53
2022-10-13T17:52:45.704Z,4.53
2022-10-13T17:55:12.549Z,4.30
2022-10-13T17:57:39.157Z,4.35
2022-10-13T18:00:06.535Z,4.60
2022-10-13T18:02:33.216Z,4.35
2022-10-13T18:04:59.789Z,4.43
2022-10-13T18:07:26.350Z,4.38
2022-10-13T18:09:53.334Z,4.72
2022-10-13T18:12:20.178Z,4.70
2022-10-13T18:14:46.880Z,3.95
2022-10-13T18:17:13.484Z,4.40
2022-10-13T18:19:40.583Z,4.40
2022-10-13T18:22:07.186Z,4.47
2022-10-13T18:24:33.822Z,4.00
2022-10-13T18:27:00.778Z,4.20
2022-10-13T18:29:27.418Z,4.30
2022-10-13T18:31:56.188Z,3.97
2022-10-13T18:34:23.376Z,3.97
2022-10-13T18:36:52.736Z,4.38
2022-10-13T18:39:22.302Z,3.67
2022-10-13T18:41:50.259Z,4.33
2022-10-13T18:44:16.915Z,4.18
2022-10-13T18:46:43.621Z,4.57
2022-10-13T18:49:14.822Z,3.85
2022-10-13T18:51:41.521Z,4.05
2022-10-13T18:54:08.341Z,4.17
2022-10-13T18:56:36.987Z,3.63
2022-10-13T18:59:05.433Z,3.47
2022-10-13T19:01:33.962Z,3.97
2022-10-13T19:04:00.577Z,4.45
2022-10-13T19:06:28.174Z,3.70
2022-10-13T19:08:58.537Z,4.18
2022-10-13T19:11:25.252Z,4.30
2022-10-13T19:13:51.832Z,3.80
2022-10-13T19:16:20.242Z,3.97
2022-10-13T19:18:46.982Z,4.17
2022-10-13T19:21:13.993Z,4.28
2022-10-13T19:23:41.147Z,3.78
2022-10-13T19:26:19.803Z,4.25
2022-10-13T19:28:46.687Z,3.70
2022-10-13T19:31:17.173Z,3.60
2022-10-13T19:33:45.246Z,3.30
2022-10-13T19:36:20.118Z,3.88
2022-10-13T19:38:46.703Z,3.78
2022-10-13T19:41:13.295Z,3.35
2022-10-13T19:43:39.865Z,3.10
2022-10-13T19:46:07.415Z,3.60
2022-10-13T19:48:34.618Z,3.30
2022-10-13T19:51:02.167Z,3.10
2022-10-13T19:53:28.746Z,3.00
2022-10-13T19:55:55.350Z,2.97
2022-10-13T19:58:22.102Z,2.88
2022-10-13T20:00:49.943Z,3.00
2022-10-13T20:03:16.792Z,3.00
2022-10-13T20:05:43.630Z,2.95
2022-10-13T20:08:11.755Z,2.77
2022-10-13T20:10:42.516Z,2.92
2022-10-13T20:13:10.310Z,3.05
2022-10-13T20:15:41.730Z,2.80
2022-10-13T20:18:10.031Z,2.92
2022-10-13T20:20:36.882Z,3.10
2022-10-13T20:23:03.530Z,3.13
2022-10-13T20:25:30.206Z,3.17
2022-10-13T20:27:56.813Z,3.10
2022-10-13T20:30:23.612Z,3.75
2022-10-13T20:32:50.215Z,3.57
2022-10-13T20:35:16.916Z,3.20
2022-10-13T20:37:43.496Z,3.20
2022-10-13T20:40:10.403Z,3.58
2022-10-13T20:42:37.000Z,3.50
2022-10-13T20:45:03.971Z,3.13
2022-10-13T20:47:30.546Z,3.58
2022-10-13T20:49:57.205Z,3.60
2022-10-13T20:52:24.201Z,3.30
2022-10-13T20:54:50.783Z,3.20
2022-10-13T20:57:17.385Z,3.80
2022-10-13T20:59:44.028Z,2.88
2022-10-13T21:02:13.401Z,3.30
2022-10-13T21:04:40.035Z,3.90
2022-10-13T21:07:06.573Z,3.35
2022-10-13T21:09:35.417Z,2.83
2022-10-13T21:12:02.002Z,3.20
2022-10-13T21:14:28.601Z,2.83
2022-10-13T21:16:55.349Z,2.95
2022-10-13T21:19:21.995Z,3.30
2022-10-13T21:21:48.574Z,3.70
2022-10-13T21:24:15.182Z,3.15
2022-10-13T21:26:41.769Z,3.20
2022-10-13T21:29:08.464Z,2.70
2022-10-13T21:31:36.241Z,3.35
2022-10-13T21:34:03.251Z,3.53
2022-10-13T21:36:31.510Z,3.40
2022-10-13T21:39:00.462Z,3.53
2022-10-13T21:41:27.835Z,2.72
2022-10-13T21:43:54.823Z,3.00
2022-10-13T21:46:24.019Z,2.90
2022-10-13T21:48:53.100Z,3.03
2022-10-13T21:51:29.662Z,3.20
2022-10-13T21:53:58.838Z,3.17
2022-10-13T21:56:26.247Z,3.47
2022-10-13T21:58:53.914Z,3.13
2022-10-13T22:01:21.049Z,3.20
2022-10-13T22:03:48.582Z,3.05
2022-10-13T22:06:19.367Z,3.47
2022-10-13T22:08:48.775Z,3.30
2022-10-13T22:11:16.463Z,3.17
2022-10-13T22:13:43.080Z,3.58
2022-10-13T22:16:15.449Z,3.50
2022-10-13T22:18:42.500Z,3.30
2022-10-13T22:21:15.822Z,3.53
2022-10-13T22:23:42.620Z,3.37
2022-10-13T22:26:09.838Z,3.83
2022-10-13T22:28:37.614Z,3.63
2022-10-13T22:31:09.450Z,3.63
2022-10-13T22:33:37.828Z,4.10
2022-10-13T22:36:12.562Z,4.10
2022-10-13T22:38:39.142Z,4.10
2022-10-13T22:41:06.888Z,4.35
2022-10-13T22:43:34.126Z,4.38
2022-10-13T22:46:02.030Z,4.68
2022-10-13T22:48:28.855Z,4.17
2022-10-13T22:50:55.442Z,4.18
2022-10-13T22:53:22.176Z,4.53
2022-10-13T22:55:48.772Z,4.28
2022-10-13T22:58:15.356Z,4.38
2022-10-13T23:00:41.937Z,4.43
2022-10-13T23:03:13.419Z,3.80
2022-10-13T23:05:46.626Z,4.28
2022-10-13T23:08:14.179Z,4.65
2022-10-13T23:10:40.859Z,5.05
2022-10-13T23:13:07.464Z,4.50
2022-10-13T23:15:34.047Z,5.00
2022-10-13T23:18:00.609Z,4.68
2022-10-13T23:20:27.195Z,4.82
2022-10-13T23:22:53.773Z,5.20
2022-10-13T23:25:20.353Z,5.00
2022-10-13T23:27:46.926Z,5.28
2022-10-13T23:30:13.720Z,5.07
2022-10-13T23:32:40.370Z,4.93
2022-10-13T23:35:07.136Z,4.85
2022-10-13T23:37:33.712Z,5.23
2022-10-13T23:40:00.303Z,5.40
2022-10-13T23:42:26.873Z,4.88
2022-10-13T23:44:53.454Z,4.65
2022-10-13T23:47:20.406Z,5.13
2022-10-13T23:49:47.137Z,4.67
2022-10-13T23:52:13.720Z,5.22
2022-10-13T23:54:40.319Z,4.97
2022-10-13T23:57:06.965Z,4.90
2022-10-13T23:59:33.539Z,5.05
